Time;durP1;ratioP1;P1;durP2;ratioP2;P2;SDS_P1;SDS_P2;PMS_P1;PMS_P2;Temp;Humidity;BMP_temperature;BMP_pressure;BME280_temperature;BME280_humidity;BME280_pressure;Samples;Min_cycle;Max_cycle;Signal;HPM_P1;HPM_P2
2022/04/17 00:01:38;;;;;;;116.93;36.65;;;;;;;;;;5021210;28;20123;-70
2022/04/17 00:04:04;;;;;;;145.90;43.72;;;;;;;;;;5018604;28;20037;-69
2022/04/17 00:06:29;;;;;;;189.63;57.75;;;;;;;;;;5017518;28;20033;-70
2022/04/17 00:08:57;;;;;;;249.38;74.35;;;;;;;;;;5020123;28;20032;-69
2022/04/17 00:11:23;;;;;;;202.50;63.92;;;;;;;;;;5020722;28;20029;-69
2022/04/17 00:13:48;;;;;;;74.20;30.23;;;;;;;;;;5020204;28;20056;-68
2022/04/17 00:16:14;;;;;;;31.92;16.45;;;;;;;;;;5020621;28;20030;-70
2022/04/17 00:18:39;;;;;;;19.98;11.75;;;;;;;;;;5020665;28;20037;-71
2022/04/17 00:21:08;;;;;;;15.98;10.35;;;;;;;;;;5020545;28;20061;-70
2022/04/17 00:23:33;;;;;;;10.00;7.25;;;;;;;;;;5021115;28;20036;-71
2022/04/17 00:25:59;;;;;;;7.93;6.15;;;;;;;;;;5019341;28;20041;-70
2022/04/17 00:28:24;;;;;;;6.55;4.82;;;;;;;;;;5020901;28;20112;-72
2022/04/17 00:30:50;;;;;;;6.03;5.25;;;;;;;;;;5020300;28;21008;-69
2022/04/17 00:33:15;;;;;;;9.20;5.70;;;;;;;;;;5020870;28;20537;-72
2022/04/17 00:35:43;;;;;;;6.22;5.05;;;;;;;;;;5019415;28;20037;-68
2022/04/17 00:38:08;;;;;;;7.03;4.63;;;;;;;;;;5021036;28;20129;-68
2022/04/17 00:40:34;;;;;;;6.80;5.45;;;;;;;;;;5024331;28;20116;-68
2022/04/17 00:42:59;;;;;;;9.70;5.40;;;;;;;;;;5024535;28;20383;-68
2022/04/17 00:45:25;;;;;;;7.65;5.22;;;;;;;;;;5024588;28;20117;-68
2022/04/17 00:47:51;;;;;;;7.30;5.05;;;;;;;;;;5023120;28;20755;-69
2022/04/17 00:50:16;;;;;;;6.88;5.22;;;;;;;;;;5023381;28;20111;-69
2022/04/17 00:52:43;;;;;;;6.68;5.25;;;;;;;;;;5024752;28;20073;-69
2022/04/17 00:55:09;;;;;;;8.30;6.03;;;;;;;;;;5024397;28;20135;-69
2022/04/17 00:57:35;;;;;;;8.73;5.38;;;;;;;;;;5023724;28;20037;-69
2022/04/17 01:00:02;;;;;;;7.82;5.30;;;;;;;;;;5023474;28;20044;-69
2022/04/17 01:02:28;;;;;;;8.15;5.72;;;;;;;;;;5023535;28;20076;-69
2022/04/17 01:04:53;;;;;;;8.65;5.00;;;;;;;;;;5024296;28;20037;-69
2022/04/17 01:07:21;;;;;;;7.28;5.32;;;;;;;;;;5023785;28;20083;-69
2022/04/17 01:09:47;;;;;;;6.15;4.80;;;;;;;;;;5021682;28;20041;-71
2022/04/17 01:12:13;;;;;;;6.68;5.20;;;;;;;;;;5024529;28;20042;-68
2022/04/17 01:14:42;;;;;;;11.48;6.05;;;;;;;;;;5024274;28;20030;-68
2022/04/17 01:17:09;;;;;;;7.57;5.78;;;;;;;;;;5024598;28;20029;-68
2022/04/17 01:19:39;;;;;;;8.73;5.00;;;;;;;;;;5022677;28;20057;-68
2022/04/17 01:22:06;;;;;;;7.97;4.90;;;;;;;;;;5024697;28;20049;-68
2022/04/17 01:27:17;;;;;;;7.78;4.78;;;;;;;;;;5024784;28;20669;-68
2022/04/17 01:29:43;;;;;;;8.85;4.95;;;;;;;;;;5024111;28;20053;-69
2022/04/17 01:32:10;;;;;;;5.50;4.32;;;;;;;;;;5022595;28;20037;-69
2022/04/17 01:34:36;;;;;;;5.50;4.60;;;;;;;;;;5022959;28;20037;-69
2022/04/17 01:37:03;;;;;;;6.05;4.82;;;;;;;;;;5024912;28;20037;-68
2022/04/17 01:39:29;;;;;;;6.85;5.32;;;;;;;;;;5024919;28;20061;-69
2022/04/17 01:41:56;;;;;;;6.88;4.65;;;;;;;;;;5022654;28;20534;-69
2022/04/17 01:44:24;;;;;;;4.85;4.28;;;;;;;;;;5025813;28;20029;-69
2022/04/17 01:46:49;;;;;;;6.03;4.43;;;;;;;;;;5027493;28;20112;-69
2022/04/17 01:49:15;;;;;;;6.95;4.80;;;;;;;;;;5026532;28;20140;-68
2022/04/17 01:51:42;;;;;;;4.85;4.25;;;;;;;;;;5029238;28;20028;-70
2022/04/17 01:54:12;;;;;;;6.32;4.80;;;;;;;;;;5025170;28;20046;-69
2022/04/17 01:56:39;;;;;;;7.30;4.80;;;;;;;;;;5019998;28;20044;-69
2022/04/17 01:59:06;;;;;;;6.88;4.93;;;;;;;;;;5026587;28;20037;-69
2022/04/17 02:01:36;;;;;;;8.25;4.68;;;;;;;;;;5027439;28;20037;-69
2022/04/17 02:04:03;;;;;;;8.52;5.10;;;;;;;;;;5023358;28;20041;-69
2022/04/17 02:06:28;;;;;;;7.18;4.90;;;;;;;;;;5025207;28;20036;-69
2022/04/17 02:08:55;;;;;;;5.68;4.70;;;;;;;;;;5023245;28;20029;-68
2022/04/17 02:11:22;;;;;;;5.03;4.05;;;;;;;;;;5023483;28;20398;-69
2022/04/17 02:13:51;;;;;;;5.90;4.75;;;;;;;;;;5022683;28;20041;-69
2022/04/17 02:16:17;;;;;;;6.97;5.18;;;;;;;;;;5020308;28;20037;-68
2022/04/17 02:18:47;;;;;;;5.28;4.57;;;;;;;;;;5022222;28;20548;-68
2022/04/17 02:21:14;;;;;;;7.57;5.60;;;;;;;;;;5022299;28;20038;-70
2022/04/17 02:23:41;;;;;;;11.00;5.00;;;;;;;;;;5022134;28;20055;-70
2022/04/17 02:26:07;;;;;;;6.45;4.80;;;;;;;;;;5019582;28;20140;-69
2022/04/17 02:28:35;;;;;;;6.72;4.97;;;;;;;;;;5023011;28;20040;-70
2022/04/17 02:31:05;;;;;;;6.85;4.63;;;;;;;;;;4984372;28;1071184;-70
2022/04/17 02:33:31;;;;;;;5.82;4.50;;;;;;;;;;5023308;28;20033;-69
2022/04/17 02:35:56;;;;;;;6.43;4.72;;;;;;;;;;5022196;28;20037;-69
2022/04/17 02:38:22;;;;;;;6.20;4.25;;;;;;;;;;5021456;28;20041;-68
2022/04/17 02:40:47;;;;;;;7.22;5.00;;;;;;;;;;5021590;28;20041;-69
2022/04/17 02:43:13;;;;;;;6.55;5.07;;;;;;;;;;5004679;28;20025;-69
2022/04/17 02:45:38;;;;;;;6.82;5.10;;;;;;;;;;5020627;28;20029;-69
2022/04/17 02:48:04;;;;;;;6.75;4.57;;;;;;;;;;5019719;28;20044;-68
2022/04/17 02:50:30;;;;;;;7.50;4.43;;;;;;;;;;5022231;28;20041;-69
2022/04/17 02:52:56;;;;;;;5.40;4.70;;;;;;;;;;5022947;28;20045;-68
2022/04/17 02:55:22;;;;;;;6.28;4.80;;;;;;;;;;5021454;28;20063;-68
2022/04/17 02:57:48;;;;;;;7.28;4.60;;;;;;;;;;5021915;28;20731;-69
2022/04/17 03:00:14;;;;;;;8.27;5.47;;;;;;;;;;5020104;28;20045;-69
2022/04/17 03:05:37;;;;;;;6.38;5.00;;;;;;;;;;5021800;28;20068;-69
2022/04/17 03:08:14;;;;;;;5.10;4.28;;;;;;;;;;5022907;28;20033;-69
2022/04/17 03:10:42;;;;;;;6.30;4.78;;;;;;;;;;5020939;28;20065;-69
2022/04/17 03:13:08;;;;;;;8.27;4.60;;;;;;;;;;5022275;28;20040;-69
2022/04/17 03:15:37;;;;;;;6.57;5.28;;;;;;;;;;5021382;28;20033;-69
2022/04/17 03:18:04;;;;;;;7.95;4.40;;;;;;;;;;5022661;28;20135;-69
2022/04/17 03:20:30;;;;;;;11.32;4.95;;;;;;;;;;5020788;28;20034;-70
2022/04/17 03:22:55;;;;;;;6.03;4.78;;;;;;;;;;5022435;28;20366;-69
2022/04/17 03:25:21;;;;;;;6.80;4.85;;;;;;;;;;5021877;28;20036;-71
2022/04/17 03:27:46;;;;;;;6.38;4.80;;;;;;;;;;5022538;28;20394;-71
2022/04/17 03:30:17;;;;;;;5.80;4.72;;;;;;;;;;5019477;28;20033;-69
2022/04/17 03:32:47;;;;;;;5.03;4.45;;;;;;;;;;5021536;28;20033;-68
2022/04/17 03:35:14;;;;;;;4.88;4.38;;;;;;;;;;5022396;28;20433;-70
2022/04/17 03:37:42;;;;;;;7.90;4.72;;;;;;;;;;5022076;28;20033;-70
2022/04/17 03:40:08;;;;;;;5.57;4.70;;;;;;;;;;5021424;28;20041;-68
2022/04/17 03:42:35;;;;;;;5.75;4.88;;;;;;;;;;5021078;28;20033;-68
2022/04/17 03:45:02;;;;;;;6.10;4.95;;;;;;;;;;5020119;28;20030;-69
2022/04/17 03:47:28;;;;;;;10.35;5.28;;;;;;;;;;5022230;28;20035;-68
2022/04/17 03:49:54;;;;;;;7.13;5.22;;;;;;;;;;5021092;28;20037;-68
2022/04/17 03:52:19;;;;;;;6.32;5.63;;;;;;;;;;5019166;28;20029;-70
2022/04/17 03:54:45;;;;;;;7.07;4.95;;;;;;;;;;5021098;28;20040;-69
2022/04/17 03:57:11;;;;;;;6.28;5.18;;;;;;;;;;5017334;28;20414;-69
2022/04/17 03:59:36;;;;;;;8.63;5.75;;;;;;;;;;5020477;28;20051;-69
2022/04/17 04:02:02;;;;;;;8.88;6.30;;;;;;;;;;5020451;28;20041;-69
2022/04/17 04:04:28;;;;;;;8.25;5.30;;;;;;;;;;5016374;28;20052;-69
2022/04/17 04:06:53;;;;;;;9.27;5.68;;;;;;;;;;5019725;28;20045;-69
2022/04/17 04:09:18;;;;;;;7.53;5.72;;;;;;;;;;5019976;28;20029;-69
2022/04/17 04:11:45;;;;;;;8.55;5.55;;;;;;;;;;5021397;28;20102;-69
2022/04/17 04:14:11;;;;;;;7.25;5.47;;;;;;;;;;5019736;28;20577;-68
2022/04/17 04:16:36;;;;;;;7.95;6.00;;;;;;;;;;5020634;28;20033;-69
2022/04/17 04:19:04;;;;;;;11.85;6.13;;;;;;;;;;5019947;28;20410;-69
2022/04/17 04:21:30;;;;;;;6.28;5.30;;;;;;;;;;5021331;28;20037;-70
2022/04/17 04:23:56;;;;;;;8.02;5.40;;;;;;;;;;5020425;28;20033;-69
2022/04/17 04:26:21;;;;;;;8.93;5.53;;;;;;;;;;5019677;28;20033;-69
2022/04/17 04:28:47;;;;;;;7.35;5.53;;;;;;;;;;5027472;28;20041;-68
2022/04/17 04:31:14;;;;;;;6.57;5.65;;;;;;;;;;5020125;28;20038;-69
2022/04/17 04:33:42;;;;;;;11.85;6.20;;;;;;;;;;5021139;28;20474;-69
2022/04/17 04:36:11;;;;;;;7.63;5.47;;;;;;;;;;5019746;28;20869;-68
2022/04/17 04:38:37;;;;;;;7.68;5.25;;;;;;;;;;5020214;28;20069;-68
2022/04/17 04:41:03;;;;;;;9.30;5.88;;;;;;;;;;5019802;28;20178;-70
2022/04/17 04:43:28;;;;;;;7.20;5.55;;;;;;;;;;5020866;28;20037;-69
2022/04/17 04:46:06;;;;;;;7.85;5.57;;;;;;;;;;5020355;28;20033;-70
2022/04/17 04:51:27;;;;;;;7.03;5.43;;;;;;;;;;5020578;28;20029;-70
2022/04/17 04:53:54;;;;;;;5.03;3.53;;;;;;;;;;5020034;28;20120;-68
2022/04/17 04:56:20;;;;;;;7.55;5.10;;;;;;;;;;5020602;28;20034;-67
2022/04/17 04:58:47;;;;;;;6.60;4.40;;;;;;;;;;5018848;28;20092;-67
2022/04/17 05:01:12;;;;;;;5.30;4.45;;;;;;;;;;5019100;28;20052;-68
2022/04/17 05:03:38;;;;;;;7.82;5.40;;;;;;;;;;5018865;28;20026;-68
2022/04/17 05:06:04;;;;;;;6.57;4.85;;;;;;;;;;5019764;28;20029;-68
2022/04/17 05:08:29;;;;;;;8.75;5.72;;;;;;;;;;5020494;28;20037;-68
2022/04/17 05:10:55;;;;;;;9.20;5.45;;;;;;;;;;5018187;28;20030;-68
2022/04/17 05:13:20;;;;;;;7.75;4.88;;;;;;;;;;5020486;28;20029;-68
2022/04/17 05:15:46;;;;;;;8.55;4.88;;;;;;;;;;5020420;28;20143;-69
2022/04/17 05:18:11;;;;;;;6.30;5.00;;;;;;;;;;5014617;28;20033;-69
2022/04/17 05:20:37;;;;;;;5.68;4.70;;;;;;;;;;5014955;28;20063;-68
2022/04/17 05:23:26;;;;;;;6.43;4.50;;;;;;;;;;5019557;28;20073;-68
2022/04/17 05:25:59;;;;;;;6.70;4.68;;;;;;;;;;5023510;28;20030;-70
2022/04/17 05:28:26;;;;;;;4.28;3.80;;;;;;;;;;5016613;28;20029;-67
2022/04/17 05:30:51;;;;;;;5.85;4.50;;;;;;;;;;5019294;28;20055;-69
2022/04/17 05:33:18;;;;;;;8.70;5.00;;;;;;;;;;5019881;28;20037;-67
2022/04/17 05:35:44;;;;;;;7.68;4.72;;;;;;;;;;5003062;28;20043;-69
2022/04/17 05:38:10;;;;;;;5.28;4.65;;;;;;;;;;5018802;28;20033;-68
2022/04/17 05:40:40;;;;;;;6.85;4.65;;;;;;;;;;5015550;28;20795;-69
2022/04/17 05:43:05;;;;;;;4.82;4.05;;;;;;;;;;5011959;28;20057;-68
2022/04/17 05:45:32;;;;;;;6.22;4.60;;;;;;;;;;5016520;28;20129;-69
2022/04/17 05:47:59;;;;;;;6.47;4.38;;;;;;;;;;5016823;28;20091;-69
2022/04/17 05:50:26;;;;;;;10.05;4.85;;;;;;;;;;5017048;28;20116;-68
2022/04/17 05:52:51;;;;;;;8.25;5.10;;;;;;;;;;5019390;28;20029;-69
2022/04/17 05:55:17;;;;;;;5.30;4.65;;;;;;;;;;5016835;28;20033;-69
2022/04/17 05:57:43;;;;;;;8.10;4.68;;;;;;;;;;5017349;28;20965;-69
2022/04/17 06:00:09;;;;;;;6.20;4.85;;;;;;;;;;5012326;28;20064;-68
2022/04/17 06:02:47;;;;;;;5.50;4.43;;;;;;;;;;5017854;28;20140;-69
2022/04/17 06:05:13;;;;;;;5.18;4.68;;;;;;;;;;5021116;28;20041;-69
2022/04/17 06:07:39;;;;;;;5.68;4.07;;;;;;;;;;5020071;28;20048;-68
2022/04/17 06:10:07;;;;;;;6.97;4.82;;;;;;;;;;5020625;28;20041;-68
2022/04/17 06:12:33;;;;;;;7.47;4.80;;;;;;;;;;5019977;28;20030;-67
2022/04/17 06:14:59;;;;;;;6.60;4.55;;;;;;;;;;5022438;28;20029;-68
2022/04/17 06:17:24;;;;;;;6.28;4.40;;;;;;;;;;5021288;28;20810;-68
2022/04/17 06:19:50;;;;;;;4.55;4.15;;;;;;;;;;5020784;28;20033;-68
2022/04/17 06:22:17;;;;;;;6.72;5.25;;;;;;;;;;5019399;28;20072;-69
2022/04/17 06:24:43;;;;;;;6.57;3.63;;;;;;;;;;5020021;28;20041;-68
2022/04/17 06:27:08;;;;;;;4.38;3.55;;;;;;;;;;5018379;28;20546;-68
2022/04/17 06:29:35;;;;;;;4.35;3.92;;;;;;;;;;5017890;28;20116;-68
2022/04/17 06:32:00;;;;;;;5.13;4.18;;;;;;;;;;5018801;28;20060;-68
2022/04/17 06:34:26;;;;;;;7.53;4.75;;;;;;;;;;5016770;28;20168;-69
2022/04/17 06:36:51;;;;;;;5.05;4.18;;;;;;;;;;5018095;28;20049;-69
2022/04/17 06:39:17;;;;;;;6.25;5.43;;;;;;;;;;5017827;28;20044;-69
2022/04/17 06:41:44;;;;;;;7.68;4.40;;;;;;;;;;5018994;28;20041;-69
2022/04/17 06:44:11;;;;;;;6.70;3.90;;;;;;;;;;5018925;28;20037;-68
2022/04/17 06:46:38;;;;;;;5.15;4.50;;;;;;;;;;5020267;28;20081;-68
2022/04/17 06:49:04;;;;;;;7.65;4.40;;;;;;;;;;5019444;28;20033;-68
2022/04/17 06:51:30;;;;;;;6.78;4.35;;;;;;;;;;5015479;28;20087;-69
2022/04/17 06:53:55;;;;;;;6.25;3.30;;;;;;;;;;5017847;28;20925;-69
2022/04/17 06:56:21;;;;;;;4.05;3.65;;;;;;;;;;5018585;28;20033;-70
2022/04/17 06:58:47;;;;;;;4.70;3.92;;;;;;;;;;5019758;28;20406;-69
2022/04/17 07:01:16;;;;;;;4.30;3.65;;;;;;;;;;5018850;28;20037;-70
2022/04/17 07:03:42;;;;;;;5.65;3.83;;;;;;;;;;5022689;28;20048;-70
2022/04/17 07:06:07;;;;;;;5.13;3.80;;;;;;;;;;5020681;28;20045;-70
2022/04/17 07:08:33;;;;;;;5.03;3.40;;;;;;;;;;5020198;28;20033;-70
2022/04/17 07:10:58;;;;;;;7.40;3.80;;;;;;;;;;5020867;28;20029;-70
2022/04/17 07:13:25;;;;;;;6.97;3.80;;;;;;;;;;5022179;28;20048;-73
2022/04/17 07:15:50;;;;;;;3.88;3.28;;;;;;;;;;5022072;28;20055;-74
2022/04/17 07:18:16;;;;;;;4.22;3.38;;;;;;;;;;5022894;28;20521;-70
2022/04/17 07:20:41;;;;;;;4.68;3.15;;;;;;;;;;5022760;28;20029;-72
2022/04/17 07:23:07;;;;;;;4.78;3.42;;;;;;;;;;5019823;28;20033;-74
2022/04/17 07:25:33;;;;;;;3.25;2.70;;;;;;;;;;5023455;28;20041;-72
2022/04/17 07:27:58;;;;;;;3.88;3.50;;;;;;;;;;5021577;28;20121;-72
2022/04/17 07:30:30;;;;;;;4.78;3.63;;;;;;;;;;5019160;28;20108;-72
2022/04/17 07:32:57;;;;;;;4.55;3.13;;;;;;;;;;5019086;28;20057;-72
2022/04/17 07:35:24;;;;;;;3.95;3.35;;;;;;;;;;5021809;28;20183;-70
2022/04/17 07:38:01;;;;;;;3.42;3.10;;;;;;;;;;5020986;28;20116;-70
2022/04/17 07:40:29;;;;;;;3.13;2.90;;;;;;;;;;5020758;28;20035;-70
2022/04/17 07:42:58;;;;;;;4.95;3.50;;;;;;;;;;5019463;28;20120;-69
2022/04/17 07:45:24;;;;;;;4.60;3.60;;;;;;;;;;5019070;28;20048;-70
2022/04/17 07:47:50;;;;;;;4.03;3.30;;;;;;;;;;5021240;28;20813;-73
2022/04/17 07:50:23;;;;;;;5.00;3.28;;;;;;;;;;5021686;28;20482;-71
2022/04/17 07:52:49;;;;;;;2.88;2.67;;;;;;;;;;5020702;28;20123;-71
2022/04/17 07:55:16;;;;;;;2.55;2.35;;;;;;;;;;5019105;28;20109;-70
2022/04/17 08:00:35;;;;;;;4.55;3.40;;;;;;;;;;5020852;28;20037;-69
2022/04/17 08:03:08;;;;;;;3.70;3.05;;;;;;;;;;5019837;28;20088;-69
2022/04/17 08:05:40;;;;;;;2.72;2.30;;;;;;;;;;5006766;28;20148;-70
2022/04/17 08:08:08;;;;;;;5.07;3.60;;;;;;;;;;5014571;28;20034;-70
2022/04/17 08:10:35;;;;;;;3.45;3.00;;;;;;;;;;5013172;28;20124;-69
2022/04/17 08:13:00;;;;;;;3.33;2.42;;;;;;;;;;5015996;28;20040;-69
2022/04/17 08:15:26;;;;;;;5.22;2.97;;;;;;;;;;5019807;28;20021;-69
2022/04/17 08:17:52;;;;;;;3.72;2.75;;;;;;;;;;5018021;28;20060;-69
2022/04/17 08:20:17;;;;;;;3.72;2.50;;;;;;;;;;5021497;28;20033;-69
2022/04/17 08:22:43;;;;;;;2.72;2.20;;;;;;;;;;5021299;28;20041;-69
2022/04/17 08:25:08;;;;;;;2.15;1.95;;;;;;;;;;5019888;28;20183;-69
2022/04/17 08:27:34;;;;;;;3.83;2.35;;;;;;;;;;5016567;28;20553;-70
2022/04/17 08:30:01;;;;;;;3.70;2.83;;;;;;;;;;5015353;28;20037;-71
2022/04/17 08:32:27;;;;;;;4.18;2.92;;;;;;;;;;5017611;28;20108;-70
2022/04/17 08:34:52;;;;;;;2.90;2.65;;;;;;;;;;5018173;28;20116;-70
2022/04/17 08:37:18;;;;;;;3.50;2.88;;;;;;;;;;5014421;28;20035;-72
2022/04/17 08:39:43;;;;;;;3.47;2.97;;;;;;;;;;5012812;28;20592;-70
2022/04/17 08:42:11;;;;;;;6.47;4.05;;;;;;;;;;5017169;28;20084;-70
2022/04/17 08:44:37;;;;;;;9.55;4.85;;;;;;;;;;5003260;28;20532;-69
2022/04/17 08:47:02;;;;;;;6.53;3.47;;;;;;;;;;5015677;28;20041;-69
2022/04/17 08:49:29;;;;;;;6.15;3.00;;;;;;;;;;5013317;28;20824;-68
2022/04/17 08:51:56;;;;;;;4.65;3.03;;;;;;;;;;5016185;28;20025;-70
2022/04/17 08:54:24;;;;;;;3.60;3.00;;;;;;;;;;5015987;28;20033;-69
2022/04/17 08:56:52;;;;;;;4.35;2.92;;;;;;;;;;5017689;28;20394;-70
2022/04/17 08:59:17;;;;;;;4.07;2.97;;;;;;;;;;5020020;28;20437;-70
2022/04/17 09:01:42;;;;;;;2.90;2.70;;;;;;;;;;5020293;28;20096;-69
2022/04/17 09:04:08;;;;;;;6.78;3.10;;;;;;;;;;5019310;28;20116;-69
2022/04/17 09:06:35;;;;;;;4.38;2.92;;;;;;;;;;5019098;28;20094;-71
2022/04/17 09:09:05;;;;;;;2.97;2.78;;;;;;;;;;5020673;28;20067;-72
2022/04/17 09:11:33;;;;;;;3.65;3.30;;;;;;;;;;5015211;28;20037;-69
2022/04/17 09:14:02;;;;;;;3.78;3.38;;;;;;;;;;5016682;28;20033;-70
2022/04/17 09:16:34;;;;;;;7.45;3.92;;;;;;;;;;5019407;28;20025;-70
2022/04/17 09:19:12;;;;;;;5.70;3.80;;;;;;;;;;5025975;28;20030;-69
2022/04/17 09:21:37;;;;;;;3.70;2.78;;;;;;;;;;5020127;28;20069;-72
2022/04/17 09:24:16;;;;;;;4.50;3.00;;;;;;;;;;5019437;28;20137;-69
2022/04/17 09:26:51;;;;;;;4.05;3.10;;;;;;;;;;5019971;28;20036;-69
2022/04/17 09:29:27;;;;;;;5.28;2.85;;;;;;;;;;5018704;28;20037;-70
2022/04/17 09:32:10;;;;;;;3.35;3.05;;;;;;;;;;5019577;28;20048;-69
2022/04/17 09:34:46;;;;;;;4.50;3.00;;;;;;;;;;5018293;28;20041;-69
2022/04/17 09:37:18;;;;;;;5.90;2.65;;;;;;;;;;5023626;28;20033;-69
2022/04/17 09:39:45;;;;;;;13.95;2.80;;;;;;;;;;5019897;28;20128;-69
2022/04/17 09:42:11;;;;;;;4.30;3.05;;;;;;;;;;5019655;28;20494;-70
2022/04/17 09:44:49;;;;;;;3.47;2.97;;;;;;;;;;5015320;28;20075;-71
2022/04/17 09:47:18;;;;;;;3.63;2.83;;;;;;;;;;5020561;28;20554;-71
2022/04/17 09:50:08;;;;;;;3.20;2.78;;;;;;;;;;5017922;28;20057;-71
2022/04/17 09:52:44;;;;;;;3.53;3.03;;;;;;;;;;5021820;28;20179;-70
2022/04/17 09:55:11;;;;;;;2.78;2.50;;;;;;;;;;5019171;28;20044;-71
2022/04/17 09:57:41;;;;;;;2.88;2.67;;;;;;;;;;5020346;28;20036;-71
2022/04/17 10:00:09;;;;;;;3.63;2.67;;;;;;;;;;5010535;28;20099;-71
2022/04/17 10:02:37;;;;;;;4.00;2.65;;;;;;;;;;5019458;28;20044;-71
2022/04/17 10:05:03;;;;;;;2.80;2.22;;;;;;;;;;5020016;28;20064;-71
2022/04/17 10:07:30;;;;;;;3.50;2.63;;;;;;;;;;5017630;28;20041;-72
2022/04/17 10:09:56;;;;;;;3.70;2.80;;;;;;;;;;5016281;28;20033;-71
2022/04/17 10:12:22;;;;;;;2.88;2.15;;;;;;;;;;5018472;28;20037;-71
2022/04/17 10:14:52;;;;;;;3.13;2.70;;;;;;;;;;5018066;28;20037;-69
2022/04/17 10:17:22;;;;;;;3.17;2.80;;;;;;;;;;5021432;28;20048;-68
2022/04/17 10:19:49;;;;;;;4.18;2.90;;;;;;;;;;5017086;28;20098;-69
2022/04/17 10:22:18;;;;;;;4.72;3.17;;;;;;;;;;5017842;28;20041;-68
2022/04/17 10:24:54;;;;;;;5.82;3.45;;;;;;;;;;5019191;28;20111;-71
2022/04/17 10:27:26;;;;;;;3.35;2.50;;;;;;;;;;5017541;28;20120;-68
2022/04/17 10:30:08;;;;;;;6.32;3.13;;;;;;;;;;5015266;28;20037;-68
2022/04/17 10:32:34;;;;;;;14.68;4.75;;;;;;;;;;5015236;28;20108;-68
2022/04/17 10:35:10;;;;;;;7.28;3.00;;;;;;;;;;5016077;28;20037;-67
2022/04/17 10:37:57;;;;;;;4.38;2.85;;;;;;;;;;5016106;28;20041;-67
2022/04/17 10:40:23;;;;;;;8.88;3.53;;;;;;;;;;5009040;28;20089;-67
2022/04/17 10:43:02;;;;;;;3.53;2.70;;;;;;;;;;5013745;28;20038;-69
2022/04/17 10:45:31;;;;;;;2.72;2.50;;;;;;;;;;5011538;28;20843;-68
2022/04/17 10:48:05;;;;;;;3.75;2.90;;;;;;;;;;5017627;28;20114;-66
2022/04/17 10:50:43;;;;;;;3.30;2.60;;;;;;;;;;5016617;28;20056;-66
2022/04/17 10:53:29;;;;;;;2.75;2.00;;;;;;;;;;5019375;28;20123;-68
2022/04/17 10:56:05;;;;;;;3.75;2.10;;;;;;;;;;5017018;28;20037;-68
2022/04/17 10:58:42;;;;;;;4.00;2.78;;;;;;;;;;5020138;28;20090;-68
2022/04/17 11:01:11;;;;;;;2.60;2.40;;;;;;;;;;5012479;28;20037;-69
2022/04/17 11:03:38;;;;;;;2.75;2.55;;;;;;;;;;5026625;28;20648;-68
2022/04/17 11:06:32;;;;;;;5.93;2.63;;;;;;;;;;5018268;28;20041;-70
2022/04/17 11:09:10;;;;;;;6.30;4.72;;;;;;;;;;5015891;28;20042;-69
2022/04/17 11:11:40;;;;;;;4.57;2.95;;;;;;;;;;5015037;28;20029;-68
2022/04/17 11:14:18;;;;;;;3.65;2.88;;;;;;;;;;5017641;28;20128;-68
2022/04/17 11:17:12;;;;;;;22.63;16.42;;;;;;;;;;5019371;28;20044;-69
2022/04/17 11:19:39;;;;;;;4.93;3.42;;;;;;;;;;5018677;28;20045;-71
2022/04/17 11:22:08;;;;;;;3.75;2.58;;;;;;;;;;5018203;28;20043;-68
2022/04/17 11:24:55;;;;;;;2.25;2.10;;;;;;;;;;5018459;28;20107;-70
2022/04/17 11:27:50;;;;;;;4.22;2.78;;;;;;;;;;5018543;28;20138;-68
2022/04/17 11:30:15;;;;;;;4.75;3.70;;;;;;;;;;5012403;28;20029;-68
2022/04/17 11:32:41;;;;;;;5.03;2.63;;;;;;;;;;5016314;28;20029;-68
2022/04/17 11:35:11;;;;;;;5.15;2.70;;;;;;;;;;5015761;28;20056;-67
2022/04/17 11:37:38;;;;;;;3.90;2.55;;;;;;;;;;5018540;28;20057;-69
2022/04/17 11:40:16;;;;;;;3.10;2.53;;;;;;;;;;5018105;28;20136;-68
2022/04/17 11:42:42;;;;;;;3.72;2.42;;;;;;;;;;5017914;28;20045;-69
2022/04/17 11:45:09;;;;;;;2.90;2.35;;;;;;;;;;5017736;28;20065;-69
2022/04/17 11:47:39;;;;;;;2.97;2.40;;;;;;;;;;5017818;28;20034;-69
2022/04/17 11:50:08;;;;;;;3.20;2.15;;;;;;;;;;5017680;28;20033;-68
2022/04/17 11:52:33;;;;;;;3.35;1.92;;;;;;;;;;5015296;28;20046;-69
2022/04/17 11:54:59;;;;;;;4.68;2.30;;;;;;;;;;5013240;28;20164;-68
2022/04/17 11:57:25;;;;;;;4.80;2.53;;;;;;;;;;5013065;28;20025;-69
2022/04/17 11:59:52;;;;;;;2.03;1.80;;;;;;;;;;5012688;28;20059;-69
2022/04/17 12:02:22;;;;;;;3.38;2.50;;;;;;;;;;5018647;28;20586;-70
2022/04/17 12:05:05;;;;;;;2.88;2.50;;;;;;;;;;5012549;28;20037;-69
2022/04/17 12:07:31;;;;;;;3.30;2.42;;;;;;;;;;5018853;28;20041;-69
2022/04/17 12:10:13;;;;;;;3.40;2.63;;;;;;;;;;5017872;28;20036;-69
2022/04/17 12:12:41;;;;;;;5.68;2.38;;;;;;;;;;5020206;28;20104;-69
2022/04/17 12:15:10;;;;;;;3.30;2.75;;;;;;;;;;5020481;28;20132;-69
2022/04/17 12:17:35;;;;;;;5.10;2.78;;;;;;;;;;5019906;28;20042;-69
2022/04/17 12:20:09;;;;;;;2.92;2.40;;;;;;;;;;5020008;28;20044;-69
2022/04/17 12:22:36;;;;;;;3.33;2.40;;;;;;;;;;5019808;28;20042;-68
2022/04/17 12:25:03;;;;;;;4.50;2.95;;;;;;;;;;5019461;28;20116;-69
2022/04/17 12:27:29;;;;;;;3.95;2.50;;;;;;;;;;5020440;28;20091;-68
2022/04/17 12:29:57;;;;;;;6.15;3.67;;;;;;;;;;5019299;28;20041;-69
2022/04/17 12:32:26;;;;;;;4.60;2.92;;;;;;;;;;5021487;28;20052;-68
2022/04/17 12:35:03;;;;;;;3.55;2.38;;;;;;;;;;5025321;28;20041;-68
2022/04/17 12:37:32;;;;;;;3.00;2.67;;;;;;;;;;5023963;28;20385;-69
2022/04/17 12:40:09;;;;;;;4.10;2.35;;;;;;;;;;5022901;28;20083;-69
2022/04/17 12:42:35;;;;;;;3.63;2.33;;;;;;;;;;5024948;28;20052;-69
2022/04/17 12:45:00;;;;;;;3.90;2.13;;;;;;;;;;5024957;28;20029;-68
2022/04/17 12:47:26;;;;;;;4.88;2.92;;;;;;;;;;5023228;28;20135;-68
2022/04/17 12:49:58;;;;;;;6.03;3.67;;;;;;;;;;5024185;28;20037;-69
2022/04/17 12:52:24;;;;;;;2.85;2.53;;;;;;;;;;5023573;28;20029;-68
2022/04/17 12:54:49;;;;;;;4.53;2.60;;;;;;;;;;5023488;28;20045;-69
2022/04/17 12:57:20;;;;;;;6.28;2.95;;;;;;;;;;5024959;28;20025;-68
2022/04/17 12:59:51;;;;;;;24.95;7.82;;;;;;;;;;5023540;28;20041;-68
2022/04/17 13:02:25;;;;;;;2.70;2.50;;;;;;;;;;5022301;28;20029;-68
2022/04/17 13:04:55;;;;;;;4.10;2.38;;;;;;;;;;5023724;28;20029;-68
2022/04/17 13:07:20;;;;;;;2.55;2.30;;;;;;;;;;5022857;28;20029;-69
2022/04/17 13:09:50;;;;;;;3.97;2.33;;;;;;;;;;5024730;28;20033;-68
2022/04/17 13:12:35;;;;;;;3.70;2.65;;;;;;;;;;5023844;28;20076;-68
2022/04/17 13:15:05;;;;;;;2.53;2.30;;;;;;;;;;5021671;28;20044;-68
2022/04/17 13:17:31;;;;;;;4.72;2.47;;;;;;;;;;5021930;28;20040;-68
2022/04/17 13:19:57;;;;;;;8.45;3.28;;;;;;;;;;5023374;28;20029;-69
2022/04/17 13:22:22;;;;;;;2.20;2.00;;;;;;;;;;5023787;28;20067;-68
2022/04/17 13:24:48;;;;;;;3.45;2.55;;;;;;;;;;5021417;28;20041;-69
2022/04/17 13:27:13;;;;;;;2.55;2.13;;;;;;;;;;5023397;28;20044;-68
2022/04/17 13:29:39;;;;;;;2.65;2.38;;;;;;;;;;5023434;28;20041;-70
2022/04/17 13:32:09;;;;;;;2.88;2.22;;;;;;;;;;5022580;28;20037;-68
2022/04/17 13:34:36;;;;;;;4.55;2.30;;;;;;;;;;5023997;28;20045;-68
2022/04/17 13:39:47;;;;;;;3.50;2.38;;;;;;;;;;5023819;28;20128;-68
2022/04/17 13:42:13;;;;;;;2.58;2.38;;;;;;;;;;5022344;28;20112;-68
2022/04/17 13:44:38;;;;;;;3.47;2.38;;;;;;;;;;5019007;28;20037;-68
2022/04/17 13:47:04;;;;;;;5.28;2.72;;;;;;;;;;5013787;28;20104;-68
2022/04/17 13:49:30;;;;;;;2.55;2.35;;;;;;;;;;5020108;28;20029;-68
2022/04/17 13:51:57;;;;;;;7.00;2.75;;;;;;;;;;5019463;28;20033;-68
2022/04/17 13:54:22;;;;;;;4.55;2.25;;;;;;;;;;5019647;28;20029;-68
2022/04/17 13:56:48;;;;;;;2.72;2.33;;;;;;;;;;5012691;28;20041;-68
2022/04/17 13:59:14;;;;;;;3.15;2.55;;;;;;;;;;5016051;28;20033;-69
2022/04/17 14:01:39;;;;;;;2.75;2.40;;;;;;;;;;5019801;28;20042;-68
2022/04/17 14:04:05;;;;;;;2.95;2.40;;;;;;;;;;5016181;28;20099;-68
2022/04/17 14:06:30;;;;;;;2.85;2.40;;;;;;;;;;5012686;28;20037;-68
2022/04/17 14:08:57;;;;;;;2.95;2.25;;;;;;;;;;5015152;28;20033;-70
2022/04/17 14:11:23;;;;;;;2.63;2.15;;;;;;;;;;5015180;28;20048;-69
2022/04/17 14:13:50;;;;;;;2.83;2.15;;;;;;;;;;5015132;28;20045;-70
2022/04/17 14:16:15;;;;;;;4.82;2.50;;;;;;;;;;5017647;28;20030;-70
2022/04/17 14:18:41;;;;;;;2.30;2.10;;;;;;;;;;5015781;28;20033;-70
2022/04/17 14:21:06;;;;;;;7.63;2.15;;;;;;;;;;5015867;28;20041;-70
2022/04/17 14:23:32;;;;;;;4.20;1.95;;;;;;;;;;5017812;28;20061;-69
2022/04/17 14:25:58;;;;;;;1.83;1.65;;;;;;;;;;5019348;28;20116;-69
2022/04/17 14:28:24;;;;;;;2.28;2.13;;;;;;;;;;5018766;28;20486;-70
2022/04/17 14:30:49;;;;;;;2.80;2.20;;;;;;;;;;5017778;28;20033;-70
2022/04/17 14:33:15;;;;;;;1.60;1.50;;;;;;;;;;5017578;28;20041;-70
2022/04/17 14:35:40;;;;;;;3.45;1.52;;;;;;;;;;5018760;28;20049;-70
2022/04/17 14:38:06;;;;;;;3.35;1.95;;;;;;;;;;5020259;28;20038;-71
2022/04/17 14:40:31;;;;;;;2.10;1.90;;;;;;;;;;5016933;28;20470;-69
2022/04/17 14:43:00;;;;;;;2.85;2.13;;;;;;;;;;5016666;28;20035;-70
2022/04/17 14:45:27;;;;;;;2.28;1.60;;;;;;;;;;5018951;28;20047;-69
2022/04/17 14:47:53;;;;;;;2.33;1.70;;;;;;;;;;5019570;28;20045;-70
2022/04/17 14:50:20;;;;;;;3.42;1.88;;;;;;;;;;5017378;28;20037;-70
2022/04/17 14:52:47;;;;;;;2.30;1.75;;;;;;;;;;5019354;28;20025;-69
2022/04/17 14:55:13;;;;;;;1.67;1.58;;;;;;;;;;5018229;28;20036;-69
2022/04/17 14:57:39;;;;;;;1.83;1.70;;;;;;;;;;5015415;28;20037;-69
2022/04/17 15:00:08;;;;;;;2.42;1.83;;;;;;;;;;5020345;28;20533;-69